Latest Weather Observations for Essendon Airport

IDV60801

Issued at 5:35 pm EST Wednesday 23 July 2014 (issued every 30 minutes, with the page automatically refreshed every 10 minutes)

About weather observations | Map of weather stations | Latest weather observations for VIC | Other Formats
Station Details ID: 086038 Name: ESSENDON AIRPORT Lat: -37.73 Lon: 144.91 Height: 78.4 m
Data from the previous 72 hours. | See also: Recent months at Essendon Airport
Date/Time
EST
Temp
°C
App
Temp
°C
Dew
Point
Rel
Hum
%
Delta-T
°C
Wind Press
QNH
hPa
Press
MSL
hPa
Rain
since 9 am
mm
Dir
 
Spd
km/h
Gust
km/h
Spd
kts
Gust
kts
23/05:30pm 10.9 7.5 5.9 71 2.3 N 13 19 7 10 1019.4 - 0.0
23/05:00pm 11.4 7.6 5.7 68 2.6 NNE 15 20 8 11 1019.3 - 0.0
23/04:30pm 11.6 7.4 5.5 66 2.8 N 17 20 9 11 1019.3 - 0.0
23/04:00pm 11.8 7.6 5.7 66 2.8 N 17 24 9 13 1019.4 - 0.0
23/03:30pm 12.1 7.9 5.5 64 3.1 N 17 24 9 13 1019.4 - 0.0
23/03:00pm 12.0 7.4 5.4 64 3.1 N 19 26 10 14 1019.4 1019.5 0.0
23/02:30pm 12.1 7.3 5.7 65 3.0 N 20 28 11 15 1019.7 - 0.0
23/02:00pm 11.8 7.0 5.4 65 3.0 N 20 32 11 17 1020.0 - 0.0
23/01:30pm 11.8 7.2 5.4 65 3.0 N 19 26 10 14 1020.4 - 0.0
23/01:00pm 12.2 8.1 6.3 67 2.8 N 17 26 9 14 1020.9 - 0.0
23/12:30pm 11.9 7.1 5.5 65 3.0 N 20 28 11 15 1021.4 - 0.0
23/12:00pm 11.7 6.9 5.6 66 2.8 NNW 20 28 11 15 1022.1 1022.2 0.0
23/11:30am 11.9 7.1 5.8 66 2.9 N 20 30 11 16 1022.6 - 0.0
23/11:00am 10.0 8.4 8.8 92 0.6 ENE 7 11 4 6 1023.3 - 0.0
23/10:30am 7.4 5.3 6.8 96 0.3 ENE 7 9 4 5 1023.6 - 0.0
23/10:00am 5.1 2.2 4.8 98 0.1 E 9 11 5 6 1023.8 - 0.0
23/09:44am 4.5 1.5 4.2 98 0.1 ENE 9 13 5 7 1023.7 - 0.0
23/09:40am 4.3 0.9 4.0 98 0.1 ENE 11 13 6 7 1023.8 - 0.0
23/09:30am 4.1 0.7 3.8 98 0.1 ENE 11 13 6 7 1023.7 - 0.0
23/09:18am 3.5 -0.1 3.2 98 0.1 ENE 11 13 6 7 1023.7 - 0.0
23/09:00am 2.8 -0.9 2.5 98 0.1 ENE 11 13 6 7 1023.8 1023.9 0.0
23/08:30am 2.5 -1.2 2.2 98 0.1 NE 11 13 6 7 1023.9 - 0.0
23/08:00am 2.8 -0.5 2.5 98 0.1 ENE 9 13 5 7 1023.9 - 0.0
23/07:30am 3.1 0.2 2.8 98 0.1 NE 7 11 4 6 1024.0 - 0.0
23/07:00am 3.4 0.6 3.1 98 0.1 NNE 7 9 4 5 1023.7 - 0.0
23/06:30am 3.6 0.8 3.3 98 0.1 ENE 7 11 4 6 1023.6 - 0.0
23/06:00am 4.3 1.8 4.0 98 0.1 ENE 6 9 3 5 1023.4 1023.5 0.0
23/05:47am 4.6 3.0 4.3 98 0.1 NNE 2 6 1 3 1023.3 - 0.0
23/05:38am 4.6 2.2 4.3 98 0.1 NNE 6 7 3 4 1023.5 - 0.0
23/05:30am 4.6 3.3 4.3 98 0.1 CALM 0 6 0 3 1023.4 - 0.0
23/05:00am 4.5 1.5 4.2 98 0.1 N 9 13 5 7 1023.3 - 0.0
23/04:30am 4.9 2.6 4.6 98 0.1 NNE 6 7 3 4 1023.5 - 0.0
23/04:00am 4.9 2.4 4.6 98 0.1 E 7 9 4 5 1023.4 - 0.0
23/03:42am 5.0 2.5 4.7 98 0.1 NE 7 11 4 6 1023.6 - 0.0
23/03:30am 5.0 2.1 4.7 98 0.1 ENE 9 11 5 6 1023.6 - 0.0
23/03:00am 5.1 1.8 4.8 98 0.1 NNE 11 15 6 8 1023.9 1024.0 0.0
23/02:38am 5.3 2.5 5.0 98 0.1 NNE 9 13 5 7 1024.0 - 0.0
23/02:30am 5.4 2.2 5.1 98 0.1 NE 11 15 6 8 1024.0 - 0.0
23/02:21am 5.5 2.7 5.2 98 0.1 ENE 9 15 5 8 1023.9 - 0.0
23/02:00am 5.8 2.7 5.5 98 0.1 NE 11 15 6 8 1024.0 - 0.0
23/01:30am 6.3 3.7 6.0 98 0.1 NNE 9 13 5 7 1024.0 - 0.0
23/01:00am 6.5 4.3 6.2 98 0.1 N 7 9 4 5 1024.2 - 0.0
23/12:30am 6.5 3.9 6.2 98 0.1 NNE 9 11 5 6 1024.4 - 0.0
23/12:00am 6.6 4.0 6.3 98 0.1 N 9 11 5 6 1024.5 1024.6 0.0
 
Date/Time
EST
Temp
°C
App
Temp
°C
Dew
Point
Rel
Hum
%
Delta-T
°C
Wind Press
QNH
hPa
Press
MSL
hPa
Rain
since 9 am
mm
Dir
 
Spd
km/h
Gust
km/h
Spd
kts
Gust
kts
22/11:30pm 6.6 3.7 6.3 98 0.1 N 11 13 6 7 1024.7 - 0.0
22/11:00pm 6.4 3.8 6.1 98 0.1 N 9 11 5 6 1025.0 - 0.0
22/10:30pm 6.1 3.8 5.8 98 0.1 N 7 9 4 5 1025.1 - 0.0
22/10:00pm 5.9 4.9 5.6 98 0.1 CALM 0 0 0 0 1025.3 - 0.0
22/09:30pm 5.7 3.5 5.4 98 0.1 NNE 6 7 3 4 1025.1 - 0.0
22/09:17pm 5.6 3.4 5.3 98 0.1 NNE 6 9 3 5 1025.0 - 0.0
22/09:00pm 5.5 2.7 5.2 98 0.1 NNE 9 11 5 6 1025.1 1025.2 0.0
22/08:30pm 5.7 2.2 5.4 98 0.1 N 13 15 7 8 1024.8 - 0.0
22/08:00pm 5.8 2.7 5.5 98 0.1 NNE 11 13 6 7 1024.7 - 0.0
22/07:30pm 5.8 3.1 5.4 97 0.2 N 9 11 5 6 1024.7 - 0.0
22/07:17pm 5.8 3.0 5.2 96 0.3 NE 9 11 5 6 1024.6 - 0.0
22/07:06pm 5.7 2.5 5.0 95 0.3 NNE 11 15 6 8 1024.5 - 0.0
22/07:00pm 5.8 2.2 5.1 95 0.3 NNE 13 17 7 9 1024.4 - 0.0
22/06:30pm 6.1 3.3 5.1 93 0.4 NE 9 13 5 7 1024.4 - 0.0
22/06:08pm 6.2 3.9 4.8 91 0.6 NNE 6 9 3 5 1024.3 - 0.0
22/06:00pm 7.3 6.4 6.1 92 0.5 CALM 0 6 0 3 1024.3 1024.4 0.0
22/05:52pm 6.8 5.0 5.4 91 0.6 NW 4 7 2 4 1024.3 - 0.0
22/05:32pm 6.7 3.9 5.2 90 0.7 WNW 9 9 5 5 1024.3 - 0.0
22/05:30pm 6.8 4.4 5.3 90 0.7 WNW 7 9 4 5 1024.3 - 0.0
22/05:00pm 8.0 4.6 5.8 86 1.0 WNW 13 17 7 9 1024.3 - 0.0
22/04:30pm 9.7 7.1 6.2 79 1.6 NE 9 11 5 6 1024.0 - 0.0
22/04:00pm 10.8 9.2 6.4 74 2.1 ESE 4 7 2 4 1024.2 - 0.0
22/03:30pm 10.8 9.2 6.2 73 2.2 NW 4 9 2 5 1024.3 - 0.0
22/03:00pm 10.5 9.3 6.5 76 1.9 SE 2 7 1 4 1024.5 1024.6 0.0
22/02:30pm 10.2 8.6 6.5 78 1.7 SE 4 6 2 3 1024.6 - 0.0
22/02:15pm 10.3 8.7 6.3 76 1.9 NNE 4 9 2 5 1024.8 - 0.0
22/02:00pm 9.9 7.9 6.4 79 1.6 N 6 9 3 5 1024.8 - 0.0
22/01:30pm 9.4 6.9 6.7 83 1.3 WNW 9 15 5 8 1025.1 - 0.0
22/01:00pm 8.6 6.5 6.6 87 0.9 NNW 7 11 4 6 1025.5 - 0.0
22/12:30pm 7.9 5.7 6.2 89 0.8 NNW 7 11 4 6 1026.0 - 0.0
22/12:00pm 7.5 5.5 6.3 92 0.5 NW 6 9 3 5 1026.3 1026.5 0.0
22/11:30am 7.0 4.8 6.3 95 0.3 WSW 7 11 4 6 1026.4 - 0.0
22/11:00am 6.7 5.0 6.1 96 0.3 W 4 7 2 4 1026.9 - 0.0
22/10:30am 6.6 4.4 6.3 98 0.1 NW 7 11 4 6 1026.8 - 0.0
22/10:00am 6.4 3.8 6.1 98 0.1 W 9 11 5 6 1026.8 - 0.0
22/09:30am 6.5 4.9 6.2 98 0.1 WSW 4 9 2 5 1026.7 - 0.0
22/09:00am 6.4 4.4 6.1 98 0.1 WSW 6 9 3 5 1026.3 1026.5 0.0
22/08:30am 6.4 5.5 6.1 98 0.1 CALM 0 0 0 0 1026.2 - 0.0
22/08:00am 6.3 4.2 6.0 98 0.1 W 6 9 3 5 1026.0 - 0.0
22/07:30am 6.2 4.1 5.9 98 0.1 WSW 6 7 3 4 1025.9 - 0.0
22/07:02am 6.2 3.6 5.9 98 0.1 WNW 9 11 5 6 1025.5 - 0.0
22/07:00am 6.3 3.7 6.0 98 0.1 WNW 9 11 5 6 1025.5 - 0.0
22/06:30am 6.4 4.2 6.1 98 0.1 WNW 7 13 4 7 1025.3 - 0.0
22/06:26am 6.5 4.3 6.2 98 0.1 WNW 7 13 4 7 1025.3 - 0.0
22/06:13am 6.5 4.5 6.2 98 0.1 WNW 6 9 3 5 1025.2 - 0.0
22/06:11am 6.5 4.5 6.2 98 0.1 WNW 6 9 3 5 1025.2 - 0.0
22/06:00am 6.5 5.6 6.1 97 0.2 CALM 0 0 0 0 1025.0 1025.1 0.0
22/05:30am 6.5 5.6 6.1 97 0.2 CALM 0 6 0 3 1024.9 - 0.0
22/05:00am 6.6 5.7 6.2 97 0.2 CALM 0 0 0 0 1024.8 - 0.0
22/04:30am 6.9 5.7 6.3 96 0.3 N 2 9 1 5 1024.6 - 0.0
22/04:16am 6.8 5.9 6.2 96 0.3 CALM 0 0 0 0 1024.6 - 0.0
22/04:00am 6.3 4.0 5.7 96 0.3 N 7 9 4 5 1024.5 - 0.0
22/03:30am 6.0 5.0 5.4 96 0.3 CALM 0 4 0 2 1024.5 - 0.0
22/03:00am 5.8 4.3 5.2 96 0.3 NNW 2 7 1 4 1024.7 1024.8 0.0
22/02:30am 5.8 3.6 5.2 96 0.3 NW 6 7 3 4 1024.8 - 0.0
22/02:00am 5.4 3.1 5.0 97 0.2 NNW 6 9 3 5 1024.9 - 0.0
22/01:30am 5.0 2.5 4.6 97 0.2 NNW 7 9 4 5 1024.9 - 0.0
22/01:00am 4.2 1.5 3.8 97 0.2 N 7 9 4 5 1024.9 - 0.0
22/12:36am 4.3 1.6 3.9 97 0.2 NW 7 11 4 6 1025.1 - 0.0
22/12:30am 3.8 0.6 3.2 96 0.2 NW 9 11 5 6 1025.1 - 0.0
22/12:00am 4.2 0.7 3.6 96 0.2 NW 11 13 6 7 1025.2 1025.3 0.0
 
Date/Time
EST
Temp
°C
App
Temp
°C
Dew
Point
Rel
Hum
%
Delta-T
°C
Wind Press
QNH
hPa
Press
MSL
hPa
Rain
since 9 am
mm
Dir
 
Spd
km/h
Gust
km/h
Spd
kts
Gust
kts
21/11:30pm 3.9 0.4 3.3 96 0.2 NW 11 13 6 7 1025.2 - 0.0
21/11:00pm 4.5 1.1 3.9 96 0.3 WNW 11 11 6 6 1025.1 - 0.0
21/10:30pm 5.0 1.7 4.4 96 0.3 WNW 11 13 6 7 1025.1 - 0.0
21/10:00pm 4.8 1.4 4.2 96 0.3 NW 11 13 6 7 1025.0 - 0.0
21/09:53pm 5.4 2.1 4.8 96 0.3 NW 11 13 6 7 1024.9 - 0.0
21/09:30pm 5.6 2.7 4.9 95 0.3 WNW 9 11 5 6 1025.0 - 0.0
21/09:00pm 4.7 2.0 3.7 93 0.4 WNW 7 9 4 5 1025.0 1025.1 0.0
21/08:30pm 8.0 7.3 7.1 94 0.4 CALM 0 0 0 0 1025.0 - 0.0
21/08:00pm 8.2 7.5 7.1 93 0.5 CALM 0 0 0 0 1024.9 - 0.0
21/07:30pm 8.7 8.1 7.6 93 0.5 CALM 0 0 0 0 1024.9 - 0.0
21/07:00pm 8.4 6.9 7.0 91 0.7 S 4 6 2 3 1024.8 - 0.0
21/06:30pm 8.5 6.7 7.0 90 0.7 S 6 6 3 3 1024.5 - 0.0
21/06:00pm 8.6 6.5 6.7 88 0.9 S 7 7 4 4 1024.4 1024.5 0.0
21/05:30pm 9.3 6.9 7.1 86 1.0 S 9 11 5 6 1024.2 - 0.0
21/05:00pm 9.9 7.6 7.3 84 1.2 S 9 11 5 6 1024.2 - 0.0
21/04:30pm 10.7 8.1 7.6 81 1.5 S 11 13 6 7 1024.1 - 0.0
21/04:00pm 11.8 9.8 7.1 73 2.3 E 7 11 4 6 1024.1 - 0.0
21/03:30pm 12.2 10.0 6.3 67 2.8 NE 7 9 4 5 1024.0 - 0.0
21/03:00pm 12.2 9.6 6.0 66 2.9 NE 9 13 5 7 1023.9 1024.0 0.0
21/02:30pm 12.6 10.6 6.9 68 2.7 NNE 7 15 4 8 1023.9 - 0.0
21/02:00pm 12.5 10.1 6.8 68 2.7 NNW 9 13 5 7 1024.1 - 0.0
21/01:30pm 12.2 9.4 6.9 70 2.5 NNW 11 17 6 9 1024.3 - 0.0
21/01:00pm 12.0 9.2 7.1 72 2.4 N 11 15 6 8 1024.6 - 0.0
21/12:30pm 11.9 8.9 7.6 75 2.1 NNE 13 19 7 10 1025.0 - 0.0
21/12:00pm 11.2 9.5 7.5 78 1.8 NNE 6 7 3 4 1025.4 1025.6 0.0
21/11:30am 10.2 9.7 7.8 85 1.2 CALM 0 6 0 3 1025.8 - 0.0
21/11:00am 9.1 8.5 7.4 89 0.8 CALM 0 0 0 0 1026.2 - 0.0
21/10:30am 8.8 7.9 7.7 93 0.5 N 2 7 1 4 1026.4 - 0.0
21/10:00am 7.4 5.6 7.0 97 0.2 N 6 7 3 4 1026.3 - 0.0
21/09:30am 6.1 4.0 5.8 98 0.1 NNE 6 7 3 4 1026.3 - 0.0
21/09:13am 5.7 3.5 5.4 98 0.1 N 6 7 3 4 1026.4 - 0.0
21/09:00am 5.4 3.0 5.1 98 0.1 N 7 7 4 4 1026.3 1026.5 0.0
21/08:30am 4.3 1.8 4.0 98 0.1 E 6 6 3 3 1026.3 - 0.0
21/08:00am 3.6 0.8 3.3 98 0.1 E 7 9 4 5 1026.2 - 0.0
21/07:30am 3.4 1.2 3.1 98 0.1 N 4 6 2 3 1026.1 - 0.0
21/07:00am 3.5 0.9 3.2 98 0.1 N 6 7 3 4 1025.9 - 0.0
21/06:30am 3.9 1.4 3.6 98 0.1 NNE 6 7 3 4 1025.8 - 0.0
21/06:00am 3.7 0.9 3.3 97 0.2 E 7 7 4 4 1025.6 1025.8 0.0
21/05:41am 4.1 1.4 3.7 97 0.2 N 7 7 4 4 1025.5 - 0.0
21/05:30am 3.8 1.0 3.4 97 0.2 N 7 7 4 4 1025.6 - 0.0
21/05:07am 4.4 2.3 4.0 97 0.2 N 4 6 2 3 1025.6 - 0.0
21/05:00am 4.3 1.8 3.9 97 0.2 N 6 7 3 4 1025.6 - 0.0
21/04:48am 4.1 1.6 3.7 97 0.2 N 6 6 3 3 1025.6 - 0.0
21/04:30am 4.6 2.2 4.2 97 0.2 N 6 7 3 4 1025.6 - 0.0
21/04:00am 4.1 1.6 3.7 97 0.2 N 6 7 3 4 1025.7 - 0.0
21/03:30am 4.5 3.2 4.2 98 0.1 CALM 0 0 0 0 1026.0 - 0.0
21/03:00am 4.3 1.8 3.9 97 0.2 NW 6 9 3 5 1026.0 1026.2 0.0
21/02:30am 4.7 1.7 4.3 97 0.2 NNW 9 9 5 5 1026.0 - 0.0
21/02:09am 5.0 2.1 4.7 98 0.1 NNW 9 11 5 6 1025.9 - 0.0
21/02:00am 4.9 2.0 4.5 97 0.2 N 9 11 5 6 1025.9 - 0.0
21/01:56am 4.6 1.6 4.2 97 0.2 N 9 9 5 5 1025.9 - 0.0
21/01:40am 5.3 3.0 4.9 97 0.2 NE 6 9 3 5 1025.9 - 0.0
21/01:30am 5.2 2.9 4.8 97 0.2 NE 6 7 3 4 1026.0 - 0.0
21/01:20am 5.1 2.8 4.7 97 0.2 NNE 6 7 3 4 1026.0 - 0.0
21/01:00am 5.0 2.7 4.6 97 0.2 N 6 7 3 4 1026.0 - 0.0
21/12:44am 4.8 2.4 4.4 97 0.2 N 6 7 3 4 1026.1 - 0.0
21/12:30am 4.8 2.8 4.4 97 0.2 NW 4 7 2 4 1026.0 - 0.0
21/12:27am 4.7 2.3 4.3 97 0.2 NW 6 7 3 4 1026.0 - 0.0
21/12:00am 4.5 2.0 3.9 96 0.2 NW 6 7 3 4 1026.2 1026.4 0.0
 
Date/Time
EST
Temp
°C
App
Temp
°C
Dew
Point
Rel
Hum
%
Delta-T
°C
Wind Press
QNH
hPa
Press
MSL
hPa
Rain
since 9 am
mm
Dir
 
Spd
km/h
Gust
km/h
Spd
kts
Gust
kts
20/11:30pm 5.6 3.2 5.2 97 0.2 NNW 7 9 4 5 1026.4 - 0.0
20/11:00pm 5.7 2.5 5.1 96 0.3 NW 11 11 6 6 1026.6 - 0.0
20/10:30pm 5.8 3.0 5.2 96 0.3 NNW 9 11 5 6 1026.7 - 0.0
20/10:00pm 5.7 4.6 5.0 95 0.3 CALM 0 0 0 0 1026.8 - 0.0
20/09:30pm 6.4 5.4 5.7 95 0.3 CALM 0 0 0 0 1026.6 - 0.0
20/09:00pm 6.5 5.5 5.6 94 0.4 CALM 0 0 0 0 1026.7 1026.9 0.0
20/08:30pm 7.7 5.6 6.8 94 0.4 SE 7 7 4 4 1026.6 - 0.0
20/08:00pm 6.7 4.9 5.5 92 0.5 S 4 7 2 4 1026.6 - 0.0
20/07:30pm 8.5 7.5 7.4 93 0.5 S 2 6 1 3 1026.8 - 0.0
20/07:00pm 8.4 6.4 7.2 92 0.6 S 7 7 4 4 1026.7 - 0.0
20/06:30pm 8.6 6.4 6.1 84 1.1 S 7 9 4 5 1026.5 - 0.0
20/06:00pm 9.0 8.1 5.9 81 1.4 CALM 0 4 0 2 1026.3 1026.5 0.0

Other Formats:

Comma delimited format used in spreadsheet applications
http://www.bom.gov.au/fwo/IDV60801/IDV60801.95866.axf

JavaScript Object Notation format (JSON) in row-major order
http://www.bom.gov.au/fwo/IDV60801/IDV60801.95866.json